This is the latest recevied weather packets stored in our database for station/object p43g-13. If no packets are shown the sender has not sent any weather packets the latest 10 day(s).
| Time | Temp. | Humidity | Pressure | Rain* | Wind** | Luminosity | Snow |
|---|---|---|---|---|---|---|---|
| 1787925308 | 30.56° C | 77% | 1012.5 hPa | 0 mm | - | 766 W/m² | - |
| 1787925008 | 31.11° C | 76% | 1012.8 hPa | 0 mm | - | 397 W/m² | - |
| 1787924708 | 30.56° C | 76% | 1012.6 hPa | 0.25 mm | - | 260 W/m² | - |
| 1787924408 | 30.56° C | 77% | 1012.6 hPa | 0.25 mm | - | 665 W/m² | - |
| 1787924108 | 30° C | 79% | 1012.5 hPa | 0.25 mm | - | 689 W/m² | - |
| 1787923808 | 30.56° C | 78% | 1012.5 hPa | 0.25 mm | - | 244 W/m² | - |
| 1787923508 | 30.56° C | 78% | 1012.6 hPa | 0.25 mm | - | 183 W/m² | - |
| 1787923207 | 29.44° C | 80% | 1012.6 hPa | 0.25 mm | - | 647 W/m² | - |
| 1787922908 | 29.44° C | 82% | 1012.5 hPa | 0.25 mm | - | 176 W/m² | - |
| 1787922607 | 29.44° C | 82% | 1012.5 hPa | 0.25 mm | - | 243 W/m² | - |
| 1787922307 | 29.44° C | 82% | 1012.4 hPa | 0.25 mm | - | 151 W/m² | - |
| 1787922008 | 29.44° C | 82% | 1011.9 hPa | 0.25 mm | - | 383 W/m² | - |
| 1787921708 | 29.44° C | 79% | 1012 hPa | 0.25 mm | - | 125 W/m² | - |
| 1787921407 | 29.44° C | 79% | 1012 hPa | 0.25 mm | - | 355 W/m² | - |
| 1787921107 | 30° C | 80% | 1011.9 hPa | 0 mm | - | 185 W/m² | - |
| 1787920809 | 29.44° C | 81% | 1011.8 hPa | 0 mm | - | 356 W/m² | - |
| 1787920508 | 29.44° C | 81% | 1011.9 hPa | 0 mm | - | 170 W/m² | - |
| 1787920208 | 29.44° C | 82% | 1011.9 hPa | 0 mm | - | 292 W/m² | - |
| 1787919908 | 28.89° C | 84% | 1011.8 hPa | 0 mm | - | 176 W/m² | - |
| 1787919604 | 28.89° C | 85% | 1012.1 hPa | 0 mm | - | 97 W/m² | - |
| 1787919300 | 28.89° C | 85% | 1011.8 hPa | 0 mm | - | 154 W/m² | - |
| 1787919000 | 28.89° C | 84% | 1012 hPa | 0 mm | - | 115 W/m² | - |
| 1787918700 | 28.89° C | 85% | 1011.8 hPa | 0 mm | - | 161 W/m² | - |
| 1787918400 | 28.33° C | 86% | 1012 hPa | 0 mm | - | 145 W/m² | - |
| 1787918100 | 28.33° C | 86% | 1011.9 hPa | 0 mm | - | 147 W/m² | - |
* Rain latest hour (hover to see other rain measurements)
** Current wind speed in m/s (hover to see current wind gust speed)